createdAt,value
2023-04-25T00:00:24.369Z,58.86
2023-04-25T00:03:46.676Z,58.83
2023-04-25T00:06:48.803Z,58.90
2023-04-25T00:09:50.994Z,59.02
2023-04-25T00:12:52.516Z,58.92
2023-04-25T00:15:54.144Z,59.02
2023-04-25T00:18:56.020Z,58.99
2023-04-25T00:21:57.829Z,59.24
2023-04-25T00:25:00.684Z,59.21
2023-04-25T00:28:02.360Z,59.28
2023-04-25T00:31:04.278Z,59.23
2023-04-25T00:34:08.652Z,59.21
2023-04-25T00:37:10.992Z,59.33
2023-04-25T00:40:12.843Z,59.39
2023-04-25T00:43:14.597Z,59.39
2023-04-25T00:46:16.334Z,59.42
2023-04-25T00:49:18.126Z,59.46
2023-04-25T00:52:28.881Z,59.42
2023-04-25T00:55:31.863Z,59.42
2023-04-25T00:58:34.218Z,59.55
2023-04-25T01:01:36.245Z,59.40
2023-04-25T01:04:38.349Z,59.31
2023-04-25T01:07:41.433Z,59.45
2023-04-25T01:10:43.215Z,59.42
2023-04-25T01:13:45.065Z,59.28
2023-04-25T01:16:46.997Z,59.37
2023-04-25T01:19:49.391Z,59.30
2023-04-25T01:22:51.757Z,59.39
2023-04-25T01:25:54.097Z,59.26
2023-04-25T01:28:56.155Z,59.31
2023-04-25T01:31:59.005Z,59.33
2023-04-25T01:35:01.041Z,59.36
2023-04-25T01:38:02.716Z,59.36
2023-04-25T01:41:05.659Z,59.35
2023-04-25T01:44:07.490Z,59.18
2023-04-25T01:47:09.156Z,59.43
2023-04-25T01:50:11.651Z,59.21
2023-04-25T01:53:15.105Z,59.30
2023-04-25T01:56:19.249Z,59.11
2023-04-25T01:59:22.328Z,59.07
2023-04-25T02:02:44.433Z,58.96
2023-04-25T02:05:55.784Z,58.92
2023-04-25T02:08:58.147Z,58.99
2023-04-25T02:12:00.194Z,59.04
2023-04-25T02:15:08.461Z,59.12
2023-04-25T02:18:16.690Z,59.15
2023-04-25T02:21:18.809Z,59.19
2023-04-25T02:24:20.668Z,59.17
2023-04-25T02:27:22.380Z,59.16
2023-04-25T02:30:24.254Z,59.27
2023-04-25T02:33:26.067Z,59.34
2023-04-25T02:36:28.030Z,59.17
2023-04-25T02:39:29.710Z,59.09
2023-04-25T02:42:31.497Z,59.03
2023-04-25T02:45:33.226Z,59.05
2023-04-25T02:48:34.927Z,58.83
2023-04-25T02:51:36.589Z,58.74
2023-04-25T02:54:40.466Z,58.64
2023-04-25T02:57:42.184Z,58.43
2023-04-25T03:00:45.440Z,58.45
2023-04-25T03:03:47.285Z,58.57
2023-04-25T03:06:49.009Z,58.35
2023-04-25T03:09:50.802Z,58.38
2023-04-25T03:12:52.492Z,58.34
2023-04-25T03:15:54.959Z,58.31
2023-04-25T03:18:57.196Z,58.14
2023-04-25T03:21:58.826Z,58.03
2023-04-25T03:25:00.699Z,57.92
2023-04-25T03:28:02.415Z,57.85
2023-04-25T03:31:04.182Z,57.81
2023-04-25T03:34:05.876Z,57.79
2023-04-25T03:37:07.622Z,57.75
2023-04-25T03:40:12.560Z,57.69
2023-04-25T03:43:43.230Z,57.78
2023-04-25T03:46:47.632Z,57.72
2023-04-25T03:49:52.105Z,57.69
2023-04-25T03:52:56.721Z,57.80
2023-04-25T03:56:03.030Z,57.69
2023-04-25T03:59:06.148Z,57.65
2023-04-25T04:02:07.920Z,57.58
2023-04-25T04:05:11.238Z,57.57
2023-04-25T04:08:17.714Z,57.49
2023-04-25T04:11:20.791Z,57.37
2023-04-25T04:14:22.814Z,57.37
2023-04-25T04:17:25.700Z,57.34
2023-04-25T04:20:27.618Z,57.20
2023-04-25T04:23:30.103Z,57.26
2023-04-25T04:26:34.020Z,57.10
2023-04-25T04:29:44.656Z,57.19
2023-04-25T04:32:54.417Z,57.12
2023-04-25T04:35:56.808Z,57.23
2023-04-25T04:38:58.669Z,57.10
2023-04-25T04:42:24.548Z,56.89
2023-04-25T04:45:44.964Z,56.89
2023-04-25T04:49:05.681Z,56.84
2023-04-25T04:52:21.180Z,56.88
2023-04-25T04:55:54.905Z,56.76
2023-04-25T04:59:22.468Z,56.70
2023-04-25T05:02:42.576Z,56.54
2023-04-25T05:06:03.780Z,56.41
2023-04-25T05:09:26.152Z,56.45
2023-04-25T05:13:04.227Z,56.29
2023-04-25T05:16:24.322Z,56.14
2023-04-25T05:19:48.908Z,56.22
2023-04-25T05:23:13.594Z,56.22
2023-04-25T05:26:31.323Z,56.04
2023-04-25T05:29:56.338Z,55.98
2023-04-25T05:33:04.531Z,55.94
2023-04-25T05:36:07.308Z,55.96
2023-04-25T05:39:09.346Z,56.04
2023-04-25T05:42:29.612Z,55.79
2023-04-25T05:45:47.207Z,55.82
2023-04-25T05:49:16.035Z,55.81
2023-04-25T05:52:40.259Z,55.67
2023-04-25T05:55:53.349Z,55.72
2023-04-25T05:59:00.557Z,55.65
2023-04-25T06:02:02.411Z,55.50
2023-04-25T06:05:04.897Z,55.50
2023-04-25T06:08:07.511Z,55.60
2023-04-25T06:11:09.538Z,55.40
2023-04-25T06:14:11.256Z,55.47
2023-04-25T06:17:15.413Z,55.59
2023-04-25T06:20:17.207Z,55.52
2023-04-25T06:23:18.952Z,55.54
2023-04-25T06:26:25.857Z,55.45
2023-04-25T06:29:27.921Z,55.29
2023-04-25T06:32:30.363Z,55.29
2023-04-25T06:35:33.694Z,55.41
2023-04-25T06:38:35.848Z,55.48
2023-04-25T06:41:37.719Z,55.26
2023-04-25T06:44:41.646Z,55.40
2023-04-25T06:47:44.125Z,55.28
2023-04-25T06:50:46.124Z,55.11
2023-04-25T06:53:47.857Z,55.05
2023-04-25T06:56:58.710Z,54.92
2023-04-25T07:00:05.696Z,54.94
2023-04-25T07:03:07.686Z,54.74
2023-04-25T07:06:09.556Z,54.64
2023-04-25T07:09:11.766Z,54.66
2023-04-25T07:12:14.201Z,54.67
2023-04-25T07:15:16.256Z,54.64
2023-04-25T07:18:19.249Z,54.59
2023-04-25T07:21:21.542Z,54.40
2023-04-25T07:24:24.895Z,54.33
2023-04-25T07:27:26.987Z,54.41
2023-04-25T07:30:37.886Z,54.04
2023-04-25T07:33:39.820Z,53.91
2023-04-25T07:36:41.963Z,53.82
2023-04-25T07:39:43.740Z,53.73
2023-04-25T07:42:46.098Z,53.59
2023-04-25T07:45:51.365Z,53.58
2023-04-25T07:48:54.051Z,53.61
2023-04-25T07:51:56.854Z,53.52
2023-04-25T07:54:59.036Z,53.54
2023-04-25T07:58:08.609Z,53.38
2023-04-25T08:01:11.981Z,53.27
2023-04-25T08:04:19.834Z,53.33
2023-04-25T08:07:35.525Z,53.19
2023-04-25T08:10:39.017Z,53.06
2023-04-25T08:13:40.981Z,52.74
2023-04-25T08:16:43.322Z,52.94
2023-04-25T08:19:45.369Z,52.75
2023-04-25T08:22:53.811Z,52.70
2023-04-25T08:26:17.548Z,52.71
2023-04-25T08:29:19.471Z,52.48
2023-04-25T08:32:21.879Z,52.38
2023-04-25T08:35:36.872Z,52.30
2023-04-25T08:38:38.757Z,51.91
2023-04-25T08:41:41.936Z,51.60
2023-04-25T08:44:46.460Z,51.24
2023-04-25T08:47:53.336Z,50.77
2023-04-25T08:50:56.706Z,50.67
2023-04-25T08:57:20.304Z,50.20
2023-04-25T09:00:23.288Z,49.92
2023-04-25T09:03:25.327Z,49.74
2023-04-25T09:06:29.548Z,49.39
2023-04-25T09:09:31.620Z,49.46
2023-04-25T09:12:35.394Z,49.30
2023-04-25T09:15:57.607Z,48.96
2023-04-25T09:19:40.878Z,48.76
2023-04-25T09:23:06.051Z,48.34
2023-04-25T09:26:10.207Z,48.54
2023-04-25T09:29:11.873Z,48.43
2023-04-25T09:32:21.460Z,48.19
2023-04-25T09:35:28.395Z,48.24
2023-04-25T09:38:33.251Z,47.77
2023-04-25T09:41:46.168Z,47.82
2023-04-25T09:44:48.139Z,47.63
2023-04-25T09:47:51.018Z,47.59
2023-04-25T09:51:14.976Z,47.40
2023-04-25T09:54:17.914Z,47.13
2023-04-25T09:57:25.131Z,47.08
2023-04-25T10:00:28.594Z,46.72
2023-04-25T10:03:35.530Z,46.50
2023-04-25T10:06:53.874Z,46.41
2023-04-25T10:10:02.171Z,46.09
2023-04-25T10:13:05.998Z,46.11
2023-04-25T10:16:08.483Z,45.83
2023-04-25T10:19:11.231Z,45.62
2023-04-25T10:22:29.954Z,45.51
2023-04-25T10:25:32.306Z,45.43
2023-04-25T10:28:58.758Z,45.30
2023-04-25T10:32:01.039Z,45.20
2023-04-25T10:35:27.533Z,45.13
2023-04-25T10:38:29.305Z,44.98
2023-04-25T10:41:31.082Z,44.81
2023-04-25T10:44:33.026Z,44.67
2023-04-25T10:47:47.824Z,44.70
2023-04-25T10:50:49.863Z,44.34
2023-04-25T10:54:12.176Z,44.19
2023-04-25T10:57:32.464Z,44.12
2023-04-25T11:00:56.891Z,44.13
2023-04-25T11:04:01.502Z,44.03
2023-04-25T11:07:07.467Z,44.07
2023-04-25T11:10:10.234Z,43.97
2023-04-25T11:13:12.209Z,43.94
2023-04-25T11:19:21.195Z,43.82
2023-04-25T11:22:23.637Z,43.82
2023-04-25T11:25:26.220Z,43.54
2023-04-25T11:28:28.134Z,43.40
2023-04-25T11:31:30.632Z,43.35
2023-04-25T11:34:35.781Z,43.31
2023-04-25T11:37:40.572Z,43.55
2023-04-25T11:40:42.329Z,43.38
2023-04-25T11:43:44.713Z,43.38
2023-04-25T11:46:47.137Z,43.19
2023-04-25T11:49:49.285Z,43.34
2023-04-25T11:52:51.392Z,43.21
2023-04-25T11:55:53.632Z,43.15
2023-04-25T11:58:56.875Z,43.13
2023-04-25T12:01:58.862Z,43.07
2023-04-25T12:05:11.820Z,43.38
2023-04-25T12:08:18.058Z,43.37
2023-04-25T12:11:22.993Z,43.55
2023-04-25T12:14:29.765Z,43.48
2023-04-25T12:17:31.737Z,43.45
2023-04-25T12:20:34.480Z,43.48
2023-04-25T12:23:39.946Z,43.47
2023-04-25T12:26:59.447Z,43.42
2023-04-25T12:30:02.164Z,43.40
2023-04-25T12:33:04.088Z,43.36
2023-04-25T12:36:11.084Z,43.42
2023-04-25T12:39:20.700Z,43.57
2023-04-25T12:42:22.446Z,43.56
2023-04-25T12:45:24.186Z,43.63
2023-04-25T12:48:26.036Z,43.59
2023-04-25T12:51:28.315Z,43.64
2023-04-25T12:54:30.159Z,43.71
2023-04-25T12:57:31.976Z,43.83
2023-04-25T13:00:34.171Z,43.69
2023-04-25T13:03:36.214Z,43.71
2023-04-25T13:06:38.487Z,43.75
2023-04-25T13:09:40.463Z,43.51
2023-04-25T13:12:44.239Z,43.63
2023-04-25T13:15:46.602Z,43.52
2023-04-25T13:18:48.349Z,43.44
2023-04-25T13:21:50.350Z,43.75
2023-04-25T13:24:52.083Z,43.83
2023-04-25T13:27:53.815Z,43.78
2023-04-25T13:30:55.876Z,43.75
2023-04-25T13:33:57.530Z,43.82
2023-04-25T13:36:59.348Z,44.00
2023-04-25T13:40:04.659Z,43.89
2023-04-25T13:43:09.142Z,44.09
2023-04-25T13:46:30.164Z,44.05
2023-04-25T13:49:33.832Z,44.28
2023-04-25T13:52:35.749Z,44.24
2023-04-25T13:55:37.895Z,44.54
2023-04-25T13:58:39.970Z,44.53
2023-04-25T14:01:41.985Z,44.37
2023-04-25T14:04:43.855Z,44.29
2023-04-25T14:07:46.147Z,44.24
2023-04-25T14:10:47.984Z,44.24
2023-04-25T14:13:49.981Z,44.20
2023-04-25T14:16:54.155Z,44.30
2023-04-25T14:19:55.913Z,44.21
2023-04-25T14:22:58.523Z,44.17
2023-04-25T14:26:00.498Z,44.24
2023-04-25T14:29:02.256Z,44.23
2023-04-25T14:32:05.568Z,44.32
2023-04-25T14:35:07.662Z,44.58
2023-04-25T14:38:09.338Z,44.63
2023-04-25T14:41:11.332Z,44.48
2023-04-25T14:44:13.066Z,44.56
2023-04-25T14:47:22.540Z,44.47
2023-04-25T14:50:26.577Z,44.22
2023-04-25T14:53:31.134Z,44.15
2023-04-25T14:56:32.927Z,44.26
2023-04-25T14:59:35.065Z,44.28
2023-04-25T15:02:37.753Z,44.21
2023-04-25T15:05:41.226Z,44.17
2023-04-25T15:08:43.370Z,44.18
2023-04-25T15:11:45.914Z,44.18
2023-04-25T15:14:47.847Z,45.16
2023-04-25T15:17:49.891Z,46.81
2023-04-25T15:20:52.451Z,45.32
2023-04-25T15:23:54.376Z,44.86
2023-04-25T15:26:56.927Z,44.56
2023-04-25T15:29:58.652Z,44.04
2023-04-25T15:33:00.508Z,43.97
2023-04-25T15:36:03.627Z,43.87
2023-04-25T15:39:05.344Z,43.71
2023-04-25T15:42:07.639Z,43.83
2023-04-25T15:45:11.416Z,43.60
2023-04-25T15:48:13.246Z,43.57
2023-04-25T15:51:16.533Z,43.57
2023-04-25T15:54:18.316Z,43.54
2023-04-25T15:57:20.362Z,43.60
2023-04-25T16:00:22.312Z,43.63
2023-04-25T16:03:24.316Z,43.61
2023-04-25T16:06:26.790Z,43.32
2023-04-25T16:09:28.969Z,43.27
2023-04-25T16:12:30.749Z,43.01
2023-04-25T16:15:34.617Z,42.98
2023-04-25T16:18:37.359Z,42.79
2023-04-25T16:21:39.577Z,42.72
2023-04-25T16:24:42.468Z,42.86
2023-04-25T16:27:44.297Z,42.84
2023-04-25T16:30:46.445Z,42.91
2023-04-25T16:33:51.324Z,42.91
2023-04-25T16:36:56.466Z,43.13
2023-04-25T16:40:00.414Z,43.17
2023-04-25T16:43:02.221Z,43.04
2023-04-25T16:46:04.126Z,42.98
2023-04-25T16:49:06.101Z,42.87
2023-04-25T16:52:08.217Z,42.88
2023-04-25T16:55:10.015Z,42.97
2023-04-25T16:58:12.045Z,42.91
2023-04-25T17:01:19.384Z,43.14
2023-04-25T17:04:21.366Z,43.15
2023-04-25T17:07:23.776Z,43.35
2023-04-25T17:10:25.451Z,43.57
2023-04-25T17:13:30.773Z,43.67
2023-04-25T17:16:35.856Z,43.75
2023-04-25T17:19:37.779Z,43.77
2023-04-25T17:22:39.798Z,43.70
2023-04-25T17:25:41.650Z,43.55
2023-04-25T17:28:48.407Z,43.69
2023-04-25T17:31:50.701Z,43.86
2023-04-25T17:34:52.375Z,43.95
2023-04-25T17:37:54.076Z,44.04
2023-04-25T17:40:55.802Z,44.18
2023-04-25T17:43:57.516Z,44.13
2023-04-25T17:47:00.623Z,44.13
2023-04-25T17:50:03.559Z,44.39
2023-04-25T17:53:05.697Z,44.34
2023-04-25T17:56:19.407Z,44.51
2023-04-25T17:59:28.067Z,44.74
2023-04-25T18:02:30.731Z,45.13
2023-04-25T18:05:32.702Z,45.06
2023-04-25T18:08:34.360Z,45.05
2023-04-25T18:11:36.180Z,45.09
2023-04-25T18:14:39.082Z,45.13
2023-04-25T18:17:41.317Z,45.24
2023-04-25T18:20:44.661Z,45.09
2023-04-25T18:23:47.304Z,45.25
2023-04-25T18:26:49.866Z,45.24
2023-04-25T18:29:51.550Z,45.30
2023-04-25T18:32:54.521Z,45.19
2023-04-25T18:35:59.683Z,45.25
2023-04-25T18:39:15.554Z,45.43
2023-04-25T18:42:24.505Z,45.52
2023-04-25T18:45:26.153Z,45.56
2023-04-25T18:48:28.008Z,45.41
2023-04-25T18:51:30.899Z,45.64
2023-04-25T18:54:32.650Z,45.65
2023-04-25T18:57:34.301Z,45.67
2023-04-25T19:00:37.309Z,45.66
2023-04-25T19:03:39.704Z,45.69
2023-04-25T19:06:41.797Z,45.82
2023-04-25T19:09:46.783Z,45.96
2023-04-25T19:12:48.660Z,46.00
2023-04-25T19:15:50.405Z,46.06
2023-04-25T19:18:54.365Z,46.01
2023-04-25T19:21:58.302Z,46.09
2023-04-25T19:25:10.014Z,46.17
2023-04-25T19:28:13.287Z,46.21
2023-04-25T19:31:16.065Z,46.30
2023-04-25T19:34:17.965Z,46.54
2023-04-25T19:37:19.968Z,46.49
2023-04-25T19:40:22.124Z,46.55
2023-04-25T19:43:24.035Z,46.59
2023-04-25T19:46:26.366Z,46.65
2023-04-25T19:49:28.098Z,46.69
2023-04-25T19:52:30.984Z,46.80
2023-04-25T19:55:32.747Z,46.86
2023-04-25T19:58:35.070Z,46.93
2023-04-25T20:01:36.767Z,47.02
2023-04-25T20:04:39.209Z,47.10
2023-04-25T20:07:41.753Z,47.21
2023-04-25T20:10:43.652Z,47.39
2023-04-25T20:13:45.353Z,47.38
2023-04-25T20:16:47.268Z,47.42
2023-04-25T20:19:48.974Z,47.57
2023-04-25T20:22:50.944Z,47.69
2023-04-25T20:25:52.770Z,47.95
2023-04-25T20:28:54.896Z,48.06
2023-04-25T20:31:57.173Z,48.27
2023-04-25T20:34:59.127Z,48.23
2023-04-25T20:38:01.237Z,48.58
2023-04-25T20:41:03.157Z,48.65
2023-04-25T20:44:06.918Z,48.76
2023-04-25T20:47:09.610Z,48.90
2023-04-25T20:50:11.563Z,49.14
2023-04-25T20:53:14.406Z,49.34
2023-04-25T20:56:16.418Z,49.25
2023-04-25T20:59:18.138Z,49.20
2023-04-25T21:02:19.933Z,49.29
2023-04-25T21:05:22.257Z,49.45
2023-04-25T21:08:24.090Z,49.40
2023-04-25T21:11:26.632Z,49.39
2023-04-25T21:14:28.529Z,49.38
2023-04-25T21:17:30.287Z,49.34
2023-04-25T21:20:32.372Z,49.41
2023-04-25T21:23:34.159Z,49.39
2023-04-25T21:26:35.953Z,49.47
2023-04-25T21:29:37.626Z,49.38
2023-04-25T21:32:39.776Z,49.44
2023-04-25T21:35:41.494Z,49.51
2023-04-25T21:38:43.194Z,49.49
2023-04-25T21:41:45.774Z,49.51
2023-04-25T21:44:47.387Z,49.40
2023-04-25T21:47:49.986Z,49.54
2023-04-25T21:50:51.972Z,49.53
2023-04-25T21:53:53.691Z,49.53
2023-04-25T21:56:56.568Z,49.55
2023-04-25T21:59:58.466Z,49.73
2023-04-25T22:03:00.538Z,49.78
2023-04-25T22:06:03.259Z,49.76
2023-04-25T22:09:05.041Z,49.80
2023-04-25T22:12:07.430Z,49.75
2023-04-25T22:15:09.826Z,49.71
2023-04-25T22:18:12.671Z,49.74
2023-04-25T22:21:14.505Z,49.70
2023-04-25T22:24:16.196Z,49.59
2023-04-25T22:27:17.904Z,49.58
2023-04-25T22:30:19.830Z,49.62
2023-04-25T22:33:21.718Z,49.53
2023-04-25T22:36:23.485Z,49.54
2023-04-25T22:39:25.180Z,49.59
2023-04-25T22:42:26.869Z,49.74
2023-04-25T22:45:28.635Z,49.83
2023-04-25T22:48:30.334Z,49.85
2023-04-25T22:51:32.566Z,49.91
2023-04-25T22:54:34.637Z,49.91
2023-04-25T22:57:38.012Z,49.93
2023-04-25T23:00:40.768Z,50.06
2023-04-25T23:03:43.035Z,50.07
2023-04-25T23:06:45.694Z,49.95
2023-04-25T23:09:47.430Z,50.13
2023-04-25T23:12:49.453Z,50.08
2023-04-25T23:15:51.324Z,50.17
2023-04-25T23:18:53.252Z,50.17
2023-04-25T23:21:55.173Z,50.15
2023-04-25T23:24:57.024Z,50.28
2023-04-25T23:27:58.761Z,50.33
2023-04-25T23:31:04.900Z,50.37
2023-04-25T23:34:07.025Z,50.38
2023-04-25T23:37:08.723Z,50.34
2023-04-25T23:40:13.681Z,50.45
2023-04-25T23:43:16.184Z,50.44
2023-04-25T23:46:18.255Z,50.36
2023-04-25T23:49:20.412Z,50.26
2023-04-25T23:52:22.984Z,50.15
2023-04-25T23:55:24.779Z,50.17
2023-04-25T23:58:26.458Z,50.03
